sensor_id;sensor_type;location;lat;lon;timestamp;pressure;altitude;pressure_sealevel;temperature;humidity
51829;BME280;37881;48.024;8.774;2023-04-01T00:01:25;92786.66;;;5.25;100.00
51829;BME280;37881;48.024;8.774;2023-04-01T00:03:52;92798.75;;;5.20;100.00
51829;BME280;37881;48.024;8.774;2023-04-01T00:06:20;92792.13;;;5.22;100.00
51829;BME280;37881;48.024;8.774;2023-04-01T00:08:47;92786.69;;;5.22;100.00
51829;BME280;37881;48.024;8.774;2023-04-01T00:11:15;92793.25;;;5.24;100.00
51829;BME280;37881;48.024;8.774;2023-04-01T00:13:42;92797.53;;;5.25;100.00
51829;BME280;37881;48.024;8.774;2023-04-01T00:16:09;92790.50;;;5.28;100.00
51829;BME280;37881;48.024;8.774;2023-04-01T00:18:48;92786.69;;;5.22;100.00
51829;BME280;37881;48.024;8.774;2023-04-01T00:21:15;92784.88;;;5.11;100.00
51829;BME280;37881;48.024;8.774;2023-04-01T00:23:42;92781.38;;;5.11;100.00
51829;BME280;37881;48.024;8.774;2023-04-01T00:26:08;92782.09;;;5.15;100.00
51829;BME280;37881;48.024;8.774;2023-04-01T00:28:35;92786.00;;;5.14;100.00
51829;BME280;37881;48.024;8.774;2023-04-01T00:31:06;92776.81;;;5.04;100.00
51829;BME280;37881;48.024;8.774;2023-04-01T00:33:34;92772.13;;;5.05;100.00
51829;BME280;37881;48.024;8.774;2023-04-01T00:36:09;92768.69;;;5.00;100.00
51829;BME280;37881;48.024;8.774;2023-04-01T00:38:36;92775.22;;;5.07;100.00
51829;BME280;37881;48.024;8.774;2023-04-01T00:41:04;92776.09;;;5.00;100.00
51829;BME280;37881;48.024;8.774;2023-04-01T00:43:32;92783.72;;;5.09;100.00
51829;BME280;37881;48.024;8.774;2023-04-01T00:45:59;92780.75;;;4.99;100.00
51829;BME280;37881;48.024;8.774;2023-04-01T00:48:29;92785.00;;;5.00;100.00
51829;BME280;37881;48.024;8.774;2023-04-01T00:51:04;92781.53;;;5.00;100.00
51829;BME280;37881;48.024;8.774;2023-04-01T00:53:34;92782.78;;;4.92;100.00
51829;BME280;37881;48.024;8.774;2023-04-01T00:56:05;92782.31;;;4.97;100.00
51829;BME280;37881;48.024;8.774;2023-04-01T00:58:38;92787.00;;;4.96;100.00
51829;BME280;37881;48.024;8.774;2023-04-01T01:01:08;92778.22;;;4.85;100.00
51829;BME280;37881;48.024;8.774;2023-04-01T01:03:35;92784.06;;;4.84;100.00
51829;BME280;37881;48.024;8.774;2023-04-01T01:06:08;92780.13;;;4.88;100.00
51829;BME280;37881;48.024;8.774;2023-04-01T01:08:57;92779.31;;;4.91;100.00
51829;BME280;37881;48.024;8.774;2023-04-01T01:11:37;92781.25;;;4.91;100.00
51829;BME280;37881;48.024;8.774;2023-04-01T01:14:25;92777.94;;;4.76;100.00
51829;BME280;37881;48.024;8.774;2023-04-01T01:16:59;92773.25;;;4.76;100.00
51829;BME280;37881;48.024;8.774;2023-04-01T01:22:21;92767.47;;;4.74;100.00
51829;BME280;37881;48.024;8.774;2023-04-01T01:27:51;92768.75;;;4.63;100.00
51829;BME280;37881;48.024;8.774;2023-04-01T01:30:32;92773.06;;;4.60;100.00
51829;BME280;37881;48.024;8.774;2023-04-01T01:35:38;92772.78;;;4.51;100.00
51829;BME280;37881;48.024;8.774;2023-04-01T01:38:15;92774.28;;;4.55;100.00
51829;BME280;37881;48.024;8.774;2023-04-01T01:40:45;92769.00;;;4.41;100.00
51829;BME280;37881;48.024;8.774;2023-04-01T01:43:16;92759.47;;;4.26;100.00
51829;BME280;37881;48.024;8.774;2023-04-01T01:45:47;92761.31;;;4.32;100.00
51829;BME280;37881;48.024;8.774;2023-04-01T01:48:16;92755.88;;;4.32;100.00
51829;BME280;37881;48.024;8.774;2023-04-01T01:50:45;92744.63;;;4.34;100.00
51829;BME280;37881;48.024;8.774;2023-04-01T01:53:13;92758.69;;;4.25;100.00
51829;BME280;37881;48.024;8.774;2023-04-01T01:55:43;92755.97;;;4.25;100.00
51829;BME280;37881;48.024;8.774;2023-04-01T01:58:18;92744.72;;;4.27;100.00
51829;BME280;37881;48.024;8.774;2023-04-01T02:01:06;92747.72;;;4.36;100.00
51829;BME280;37881;48.024;8.774;2023-04-01T02:03:36;92751.19;;;4.36;100.00
51829;BME280;37881;48.024;8.774;2023-04-01T02:06:06;92768.22;;;4.40;100.00
51829;BME280;37881;48.024;8.774;2023-04-01T02:08:37;92753.88;;;4.40;100.00
51829;BME280;37881;48.024;8.774;2023-04-01T02:11:09;92762.84;;;4.37;100.00
51829;BME280;37881;48.024;8.774;2023-04-01T02:16:32;92763.94;;;4.43;100.00
51829;BME280;37881;48.024;8.774;2023-04-01T02:19:02;92758.09;;;4.45;100.00
51829;BME280;37881;48.024;8.774;2023-04-01T02:21:34;92758.41;;;4.50;100.00
51829;BME280;37881;48.024;8.774;2023-04-01T02:24:06;92758.47;;;4.47;100.00
51829;BME280;37881;48.024;8.774;2023-04-01T02:26:34;92762.78;;;4.40;100.00
51829;BME280;37881;48.024;8.774;2023-04-01T02:29:03;92752.25;;;4.46;100.00
51829;BME280;37881;48.024;8.774;2023-04-01T02:31:32;92761.13;;;4.50;100.00
51829;BME280;37881;48.024;8.774;2023-04-01T02:33:59;92765.41;;;4.51;100.00
51829;BME280;37881;48.024;8.774;2023-04-01T02:36:26;92761.22;;;4.43;100.00
51829;BME280;37881;48.024;8.774;2023-04-01T02:38:53;92747.19;;;4.48;100.00
51829;BME280;37881;48.024;8.774;2023-04-01T02:41:22;92749.88;;;4.52;100.00
51829;BME280;37881;48.024;8.774;2023-04-01T02:43:48;92758.34;;;4.57;100.00
51829;BME280;37881;48.024;8.774;2023-04-01T02:46:15;92757.94;;;4.59;100.00
51829;BME280;37881;48.024;8.774;2023-04-01T02:48:42;92759.88;;;4.58;100.00
51829;BME280;37881;48.024;8.774;2023-04-01T02:51:09;92745.53;;;4.58;100.00
51829;BME280;37881;48.024;8.774;2023-04-01T02:53:35;92750.56;;;4.59;100.00
51829;BME280;37881;48.024;8.774;2023-04-01T02:56:02;92746.34;;;4.55;100.00
51829;BME280;37881;48.024;8.774;2023-04-01T02:58:29;92745.50;;;4.62;100.00
51829;BME280;37881;48.024;8.774;2023-04-01T03:00:55;92757.16;;;4.58;100.00
51829;BME280;37881;48.024;8.774;2023-04-01T03:03:22;92750.94;;;4.62;100.00
51829;BME280;37881;48.024;8.774;2023-04-01T03:05:49;92752.00;;;4.68;100.00
51829;BME280;37881;48.024;8.774;2023-04-01T03:08:16;92752.41;;;4.66;100.00
51829;BME280;37881;48.024;8.774;2023-04-01T03:10:42;92758.50;;;4.77;100.00
51829;BME280;37881;48.024;8.774;2023-04-01T03:13:09;92761.25;;;4.74;100.00
51829;BME280;37881;48.024;8.774;2023-04-01T03:15:36;92757.78;;;4.73;100.00
51829;BME280;37881;48.024;8.774;2023-04-01T03:18:03;92750.09;;;4.65;100.00
51829;BME280;37881;48.024;8.774;2023-04-01T03:20:30;92745.13;;;4.59;100.00
51829;BME280;37881;48.024;8.774;2023-04-01T03:22:56;92758.31;;;4.61;100.00
51829;BME280;37881;48.024;8.774;2023-04-01T03:25:24;92757.97;;;4.55;100.00
51829;BME280;37881;48.024;8.774;2023-04-01T03:27:50;92768.91;;;4.48;100.00
51829;BME280;37881;48.024;8.774;2023-04-01T03:30:17;92767.41;;;4.44;100.00
51829;BME280;37881;48.024;8.774;2023-04-01T03:32:44;92766.28;;;4.41;100.00
51829;BME280;37881;48.024;8.774;2023-04-01T03:35:11;92766.22;;;4.45;100.00
51829;BME280;37881;48.024;8.774;2023-04-01T03:37:37;92774.72;;;4.50;100.00
51829;BME280;37881;48.024;8.774;2023-04-01T03:40:05;92770.53;;;4.42;100.00
51829;BME280;37881;48.024;8.774;2023-04-01T03:42:32;92771.72;;;4.41;100.00
51829;BME280;37881;48.024;8.774;2023-04-01T03:44:58;92768.22;;;4.40;100.00
51829;BME280;37881;48.024;8.774;2023-04-01T03:47:25;92771.63;;;4.48;100.00
51829;BME280;37881;48.024;8.774;2023-04-01T03:49:52;92766.28;;;4.41;100.00
51829;BME280;37881;48.024;8.774;2023-04-01T03:52:19;92767.44;;;4.40;100.00
51829;BME280;37881;48.024;8.774;2023-04-01T03:54:45;92776.00;;;4.38;100.00
51829;BME280;37881;48.024;8.774;2023-04-01T03:57:12;92765.22;;;4.31;100.00
51829;BME280;37881;48.024;8.774;2023-04-01T03:59:39;92760.88;;;4.37;100.00
51829;BME280;37881;48.024;8.774;2023-04-01T04:02:06;92763.22;;;4.39;100.00
51829;BME280;37881;48.024;8.774;2023-04-01T04:04:33;92758.53;;;4.39;100.00
51829;BME280;37881;48.024;8.774;2023-04-01T04:07:00;92762.66;;;4.55;100.00
51829;BME280;37881;48.024;8.774;2023-04-01T04:09:27;92747.53;;;4.50;100.00
51829;BME280;37881;48.024;8.774;2023-04-01T04:11:56;92757.28;;;4.48;100.00
51829;BME280;37881;48.024;8.774;2023-04-01T04:14:23;92756.13;;;4.49;100.00
51829;BME280;37881;48.024;8.774;2023-04-01T04:16:50;92749.06;;;4.55;100.00
51829;BME280;37881;48.024;8.774;2023-04-01T04:19:16;92759.06;;;4.62;100.00
51829;BME280;37881;48.024;8.774;2023-04-01T04:21:43;92754.81;;;4.60;100.00
51829;BME280;37881;48.024;8.774;2023-04-01T04:24:10;92750.94;;;4.62;100.00
51829;BME280;37881;48.024;8.774;2023-04-01T04:26:36;92749.69;;;4.66;100.00
51829;BME280;37881;48.024;8.774;2023-04-01T04:29:03;92752.78;;;4.68;100.00
51829;BME280;37881;48.024;8.774;2023-04-01T04:31:30;92760.09;;;4.75;100.00
51829;BME280;37881;48.024;8.774;2023-04-01T04:33:59;92754.69;;;4.71;100.00
51829;BME280;37881;48.024;8.774;2023-04-01T04:36:26;92757.81;;;4.70;100.00
51829;BME280;37881;48.024;8.774;2023-04-01T04:38:52;92755.06;;;4.73;100.00
51829;BME280;37881;48.024;8.774;2023-04-01T04:41:20;92747.72;;;4.70;100.00
51829;BME280;37881;48.024;8.774;2023-04-01T04:43:53;92744.19;;;4.73;100.00
51829;BME280;37881;48.024;8.774;2023-04-01T04:46:21;92740.72;;;4.73;100.00
51829;BME280;37881;48.024;8.774;2023-04-01T04:48:48;92736.47;;;4.68;100.00
51829;BME280;37881;48.024;8.774;2023-04-01T04:51:16;92752.44;;;4.63;100.00
51829;BME280;37881;48.024;8.774;2023-04-01T04:53:44;92744.28;;;4.63;100.00
51829;BME280;37881;48.024;8.774;2023-04-01T04:56:11;92750.09;;;4.65;100.00
51829;BME280;37881;48.024;8.774;2023-04-01T04:58:38;92750.16;;;4.61;100.00
51829;BME280;37881;48.024;8.774;2023-04-01T05:01:10;92737.34;;;4.62;100.00
51829;BME280;37881;48.024;8.774;2023-04-01T05:03:37;92731.56;;;4.56;100.00
51829;BME280;37881;48.024;8.774;2023-04-01T05:06:06;92733.56;;;4.52;100.00
51829;BME280;37881;48.024;8.774;2023-04-01T05:08:33;92741.34;;;4.50;100.00
51829;BME280;37881;48.024;8.774;2023-04-01T05:11:00;92739.88;;;4.42;100.00
51829;BME280;37881;48.024;8.774;2023-04-01T05:13:28;92750.41;;;4.39;100.00
51829;BME280;37881;48.024;8.774;2023-04-01T05:15:55;92742.31;;;4.32;100.00
51829;BME280;37881;48.024;8.774;2023-04-01T05:18:22;92741.22;;;4.26;100.00
51829;BME280;37881;48.024;8.774;2023-04-01T05:20:50;92754.28;;;4.38;100.00
51829;BME280;37881;48.024;8.774;2023-04-01T05:23:18;92754.22;;;4.42;100.00
51829;BME280;37881;48.024;8.774;2023-04-01T05:25:48;92746.81;;;4.46;100.00
51829;BME280;37881;48.024;8.774;2023-04-01T05:28:16;92742.91;;;4.51;100.00
51829;BME280;37881;48.024;8.774;2023-04-01T05:30:43;92739.03;;;4.48;100.00
51829;BME280;37881;48.024;8.774;2023-04-01T05:33:12;92746.38;;;4.51;100.00
51829;BME280;37881;48.024;8.774;2023-04-01T05:35:39;92743.81;;;4.71;100.00
51829;BME280;37881;48.024;8.774;2023-04-01T05:38:07;92753.97;;;4.67;100.00
51829;BME280;37881;48.024;8.774;2023-04-01T05:40:33;92750.06;;;4.68;100.00
51829;BME280;37881;48.024;8.774;2023-04-01T05:43:00;92741.69;;;4.86;100.00
51829;BME280;37881;48.024;8.774;2023-04-01T05:45:27;92748.47;;;4.71;100.00
51829;BME280;37881;48.024;8.774;2023-04-01T05:47:54;92754.13;;;4.87;100.00
51829;BME280;37881;48.024;8.774;2023-04-01T05:50:21;92754.06;;;4.91;100.00
51829;BME280;37881;48.024;8.774;2023-04-01T05:52:48;92750.22;;;4.88;100.00
51829;BME280;37881;48.024;8.774;2023-04-01T05:55:14;92753.97;;;4.98;100.00
51829;BME280;37881;48.024;8.774;2023-04-01T05:57:41;92745.66;;;5.09;100.00
51829;BME280;37881;48.024;8.774;2023-04-01T06:00:08;92758.63;;;5.28;100.00
51829;BME280;37881;48.024;8.774;2023-04-01T06:02:35;92750.19;;;5.19;100.00
51829;BME280;37881;48.024;8.774;2023-04-01T06:05:21;92744.69;;;5.23;100.00
51829;BME280;37881;48.024;8.774;2023-04-01T06:07:51;92744.31;;;5.24;100.00
51829;BME280;37881;48.024;8.774;2023-04-01T06:10:26;92747.66;;;5.59;100.00
51829;BME280;37881;48.024;8.774;2023-04-01T06:13:07;92750.13;;;5.77;100.00
51829;BME280;37881;48.024;8.774;2023-04-01T06:15:44;92746.44;;;5.64;100.00
51829;BME280;37881;48.024;8.774;2023-04-01T06:18:28;92748.63;;;5.72;100.00
51829;BME280;37881;48.024;8.774;2023-04-01T06:31:42;92751.78;;;5.71;100.00
51829;BME280;37881;48.024;8.774;2023-04-01T06:48:53;92740.31;;;6.07;100.00
51829;BME280;37881;48.024;8.774;2023-04-01T06:56:48;92730.38;;;5.96;100.00
51829;BME280;37881;48.024;8.774;2023-04-01T06:59:19;92727.03;;;5.85;100.00
51829;BME280;37881;48.024;8.774;2023-04-01T07:02:06;92730.81;;;5.91;100.00
51829;BME280;37881;48.024;8.774;2023-04-01T07:04:44;92734.53;;;6.05;100.00
51829;BME280;37881;48.024;8.774;2023-04-01T07:07:27;92723.09;;;6.13;100.00
51829;BME280;37881;48.024;8.774;2023-04-01T07:09:57;92729.91;;;6.02;100.00
51829;BME280;37881;48.024;8.774;2023-04-01T07:15:03;92735.44;;;5.98;100.00
51829;BME280;37881;48.024;8.774;2023-04-01T07:17:33;92736.63;;;5.93;100.00
51829;BME280;37881;48.024;8.774;2023-04-01T07:20:13;92732.81;;;6.14;100.00
51829;BME280;37881;48.024;8.774;2023-04-01T07:22:45;92723.56;;;6.08;100.00
51829;BME280;37881;48.024;8.774;2023-04-01T07:25:24;92746.81;;;5.89;100.00
51829;BME280;37881;48.024;8.774;2023-04-01T07:27:53;92755.50;;;6.08;100.00
51829;BME280;37881;48.024;8.774;2023-04-01T07:30:23;92761.31;;;5.83;100.00
51829;BME280;37881;48.024;8.774;2023-04-01T07:33:00;92764.34;;;5.88;100.00
51829;BME280;37881;48.024;8.774;2023-04-01T07:35:40;92759.25;;;5.90;100.00
51829;BME280;37881;48.024;8.774;2023-04-01T07:41:32;92766.00;;;5.82;100.00
51829;BME280;37881;48.024;8.774;2023-04-01T07:44:13;92762.72;;;5.67;100.00
51829;BME280;37881;48.024;8.774;2023-04-01T07:54:40;92771.09;;;5.80;100.00
51829;BME280;37881;48.024;8.774;2023-04-01T07:57:17;92772.06;;;5.66;100.00
51829;BME280;37881;48.024;8.774;2023-04-01T08:02:27;92768.81;;;5.75;100.00
51829;BME280;37881;48.024;8.774;2023-04-01T08:05:17;92772.72;;;5.74;100.00
51829;BME280;37881;48.024;8.774;2023-04-01T08:21:52;92780.91;;;5.74;100.00
51829;BME280;37881;48.024;8.774;2023-04-01T08:27:13;92786.66;;;5.52;100.00
51829;BME280;37881;48.024;8.774;2023-04-01T08:29:59;92774.63;;;5.77;100.00
51829;BME280;37881;48.024;8.774;2023-04-01T08:32:34;92770.81;;;5.71;100.00
51829;BME280;37881;48.024;8.774;2023-04-01T08:35:21;92779.81;;;5.68;100.00
51829;BME280;37881;48.024;8.774;2023-04-01T08:37:53;92779.66;;;5.78;100.00
51829;BME280;37881;48.024;8.774;2023-04-01T08:40:39;92775.59;;;5.90;100.00
51829;BME280;37881;48.024;8.774;2023-04-01T08:43:39;92774.25;;;5.75;100.00
51829;BME280;37881;48.024;8.774;2023-04-01T09:00:38;92772.28;;;6.03;100.00
51829;BME280;37881;48.024;8.774;2023-04-01T09:17:58;92788.69;;;5.99;100.00
51829;BME280;37881;48.024;8.774;2023-04-01T09:21:01;92787.88;;;5.75;100.00
51829;BME280;37881;48.024;8.774;2023-04-01T09:26:48;92788.41;;;5.66;100.00
51829;BME280;37881;48.024;8.774;2023-04-01T09:29:49;92789.28;;;5.59;100.00
51829;BME280;37881;48.024;8.774;2023-04-01T09:43:25;92802.88;;;5.87;100.00
51829;BME280;37881;48.024;8.774;2023-04-01T09:46:04;92802.41;;;5.92;100.00
51829;BME280;37881;48.024;8.774;2023-04-01T09:48:46;92806.22;;;5.98;100.00
51829;BME280;37881;48.024;8.774;2023-04-01T09:54:27;92796.84;;;5.99;100.00
51829;BME280;37881;48.024;8.774;2023-04-01T10:23:33;92799.63;;;6.66;100.00
51829;BME280;37881;48.024;8.774;2023-04-01T10:26:36;92816.81;;;6.39;100.00
51829;BME280;37881;48.024;8.774;2023-04-01T10:29:47;92811.81;;;6.38;100.00
51829;BME280;37881;48.024;8.774;2023-04-01T10:35:14;92802.53;;;6.55;100.00
51829;BME280;37881;48.024;8.774;2023-04-01T10:44:11;92806.91;;;6.49;100.00
51829;BME280;37881;48.024;8.774;2023-04-01T10:54:54;92816.47;;;6.37;100.00
51829;BME280;37881;48.024;8.774;2023-04-01T11:00:57;92817.34;;;6.54;100.00
51829;BME280;37881;48.024;8.774;2023-04-01T11:11:59;92804.94;;;6.93;100.00
51829;BME280;37881;48.024;8.774;2023-04-01T11:14:51;92805.50;;;7.05;100.00
51829;BME280;37881;48.024;8.774;2023-04-01T11:26:00;92806.38;;;7.38;100.00
51829;BME280;37881;48.024;8.774;2023-04-01T11:29:09;92789.09;;;7.45;100.00
51829;BME280;37881;48.024;8.774;2023-04-01T11:31:35;92804.03;;;7.56;100.00
51829;BME280;37881;48.024;8.774;2023-04-01T11:34:16;92801.78;;;8.20;100.00
51829;BME280;37881;48.024;8.774;2023-04-01T11:50:24;92809.84;;;8.44;100.00
51829;BME280;37881;48.024;8.774;2023-04-01T11:53:11;92811.22;;;9.11;100.00
51829;BME280;37881;48.024;8.774;2023-04-01T11:58:36;92805.06;;;8.94;100.00
51829;BME280;37881;48.024;8.774;2023-04-01T12:17:28;92836.50;;;9.02;100.00
51829;BME280;37881;48.024;8.774;2023-04-01T12:20:25;92831.78;;;9.03;100.00
51829;BME280;37881;48.024;8.774;2023-04-01T12:23:05;92845.69;;;8.79;100.00
51829;BME280;37881;48.024;8.774;2023-04-01T12:34:36;92838.00;;;9.32;100.00
51829;BME280;37881;48.024;8.774;2023-04-01T12:37:15;92849.94;;;9.26;100.00
51829;BME280;37881;48.024;8.774;2023-04-01T12:39:51;92844.38;;;9.00;100.00
51829;BME280;37881;48.024;8.774;2023-04-01T12:45:23;92852.38;;;9.07;100.00
51829;BME280;37881;48.024;8.774;2023-04-01T12:48:21;92837.19;;;9.48;100.00
51829;BME280;37881;48.024;8.774;2023-04-01T12:54:23;92831.28;;;9.50;100.00
51829;BME280;37881;48.024;8.774;2023-04-01T13:05:32;92833.13;;;8.82;100.00
51829;BME280;37881;48.024;8.774;2023-04-01T13:08:22;92841.13;;;8.89;100.00
51829;BME280;37881;48.024;8.774;2023-04-01T13:17:34;92830.44;;;9.24;100.00
51829;BME280;37881;48.024;8.774;2023-04-01T13:20:19;92839.44;;;9.37;100.00
51829;BME280;37881;48.024;8.774;2023-04-01T13:25:36;92853.81;;;8.66;100.00
51829;BME280;37881;48.024;8.774;2023-04-01T13:28:20;92840.41;;;8.72;100.00
51829;BME280;37881;48.024;8.774;2023-04-01T13:30:52;92847.03;;;8.87;100.00
51829;BME280;37881;48.024;8.774;2023-04-01T13:36:25;92849.84;;;9.00;100.00
51829;BME280;37881;48.024;8.774;2023-04-01T13:44:46;92851.81;;;8.99;100.00
51829;BME280;37881;48.024;8.774;2023-04-01T13:47:28;92858.00;;;9.16;100.00
51829;BME280;37881;48.024;8.774;2023-04-01T14:12:26;92838.00;;;8.74;100.00
51829;BME280;37881;48.024;8.774;2023-04-01T14:18:00;92848.44;;;8.63;100.00
51829;BME280;37881;48.024;8.774;2023-04-01T14:20:51;92840.88;;;8.83;100.00
51829;BME280;37881;48.024;8.774;2023-04-01T14:26:26;92850.34;;;8.95;100.00
51829;BME280;37881;48.024;8.774;2023-04-01T14:29:18;92846.88;;;8.78;100.00
51829;BME280;37881;48.024;8.774;2023-04-01T14:31:59;92840.88;;;8.83;100.00
51829;BME280;37881;48.024;8.774;2023-04-01T14:40:20;92835.47;;;8.96;100.00
51829;BME280;37881;48.024;8.774;2023-04-01T14:45:59;92850.56;;;8.88;100.00
51829;BME280;37881;48.024;8.774;2023-04-01T14:48:32;92852.09;;;8.72;100.00
51829;BME280;37881;48.024;8.774;2023-04-01T14:53:38;92855.19;;;8.58;100.00
51829;BME280;37881;48.024;8.774;2023-04-01T14:56:11;92845.19;;;8.68;100.00
51829;BME280;37881;48.024;8.774;2023-04-01T14:58:47;92839.31;;;8.69;100.00
51829;BME280;37881;48.024;8.774;2023-04-01T15:07:05;92844.22;;;9.20;100.00
51829;BME280;37881;48.024;8.774;2023-04-01T15:18:33;92850.56;;;8.38;100.00
51829;BME280;37881;48.024;8.774;2023-04-01T15:29:34;92850.25;;;8.69;100.00
51829;BME280;37881;48.024;8.774;2023-04-01T15:37:54;92847.00;;;8.42;100.00
51829;BME280;37881;48.024;8.774;2023-04-01T15:43:30;92879.75;;;8.45;100.00
51829;BME280;37881;48.024;8.774;2023-04-01T15:54:52;92876.69;;;7.70;100.00
51829;BME280;37881;48.024;8.774;2023-04-01T16:00:10;92881.97;;;7.97;100.00
51829;BME280;37881;48.024;8.774;2023-04-01T16:05:34;92881.34;;;7.90;100.00
51829;BME280;37881;48.024;8.774;2023-04-01T16:16:25;92886.81;;;7.90;100.00
51829;BME280;37881;48.024;8.774;2023-04-01T16:18:58;92883.34;;;7.69;100.00
51829;BME280;37881;48.024;8.774;2023-04-01T16:21:41;92885.69;;;7.51;100.00
51829;BME280;37881;48.024;8.774;2023-04-01T16:27:06;92882.09;;;7.34;100.00
51829;BME280;37881;48.024;8.774;2023-04-01T16:29:49;92880.34;;;7.24;100.00
51829;BME280;37881;48.024;8.774;2023-04-01T16:32:40;92881.47;;;7.26;100.00
51829;BME280;37881;48.024;8.774;2023-04-01T16:43:41;92885.34;;;6.85;100.00
51829;BME280;37881;48.024;8.774;2023-04-01T16:54:28;92896.53;;;7.14;100.00
51829;BME280;37881;48.024;8.774;2023-04-01T16:57:03;92892.63;;;6.92;100.00
51829;BME280;37881;48.024;8.774;2023-04-01T17:02:33;92906.06;;;6.83;100.00
51829;BME280;37881;48.024;8.774;2023-04-01T17:05:09;92919.03;;;6.75;100.00
51829;BME280;37881;48.024;8.774;2023-04-01T17:08:21;92915.06;;;6.79;100.00
51829;BME280;37881;48.024;8.774;2023-04-01T17:10:59;92915.59;;;6.71;100.00
51829;BME280;37881;48.024;8.774;2023-04-01T17:13:40;92917.31;;;6.61;100.00
51829;BME280;37881;48.024;8.774;2023-04-01T17:24:31;92927.97;;;6.75;100.00
51829;BME280;37881;48.024;8.774;2023-04-01T17:27:34;92935.03;;;6.73;100.00
51829;BME280;37881;48.024;8.774;2023-04-01T17:30:08;92935.59;;;6.64;100.00
51829;BME280;37881;48.024;8.774;2023-04-01T17:35:43;92940.41;;;6.53;100.00
51829;BME280;37881;48.024;8.774;2023-04-01T17:49:49;92952.31;;;6.39;100.00
51829;BME280;37881;48.024;8.774;2023-04-01T17:58:10;92954.38;;;6.31;100.00
51829;BME280;37881;48.024;8.774;2023-04-01T18:00:27;92963.38;;;6.28;100.00
51829;BME280;37881;48.024;8.774;2023-04-01T18:11:34;92964.31;;;6.18;100.00
51829;BME280;37881;48.024;8.774;2023-04-01T18:23:03;92967.31;;;5.96;100.00
51829;BME280;37881;48.024;8.774;2023-04-01T18:25:41;92972.75;;;5.96;100.00
51829;BME280;37881;48.024;8.774;2023-04-01T18:33:44;92966.91;;;5.98;100.00
51829;BME280;37881;48.024;8.774;2023-04-01T18:36:22;92969.78;;;5.84;100.00
51829;BME280;37881;48.024;8.774;2023-04-01T18:39:02;92984.13;;;5.88;100.00
51829;BME280;37881;48.024;8.774;2023-04-01T18:41:51;92983.06;;;5.78;100.00
51829;BME280;37881;48.024;8.774;2023-04-01T18:44:27;92992.03;;;5.75;100.00
51829;BME280;37881;48.024;8.774;2023-04-01T18:49:55;92996.44;;;5.65;100.00
51829;BME280;37881;48.024;8.774;2023-04-01T18:52:37;92999.69;;;5.53;100.00
51829;BME280;37881;48.024;8.774;2023-04-01T19:04:16;93006.31;;;5.52;100.00
51829;BME280;37881;48.024;8.774;2023-04-01T19:06:50;93009.09;;;5.45;100.00
51829;BME280;37881;48.024;8.774;2023-04-01T19:15:24;93013.97;;;5.23;100.00
51829;BME280;37881;48.024;8.774;2023-04-01T19:20:47;93023.84;;;5.09;100.00
51829;BME280;37881;48.024;8.774;2023-04-01T19:29:04;93028.75;;;4.76;100.00
51829;BME280;37881;48.024;8.774;2023-04-01T19:32:14;93035.41;;;4.68;100.00
51829;BME280;37881;48.024;8.774;2023-04-01T19:35:09;93035.78;;;4.70;100.00
51829;BME280;37881;48.024;8.774;2023-04-01T19:37:40;93038.19;;;4.61;100.00
51829;BME280;37881;48.024;8.774;2023-04-01T19:40:32;93043.66;;;4.57;100.00
51829;BME280;37881;48.024;8.774;2023-04-01T19:51:48;93030.56;;;4.38;100.00
51829;BME280;37881;48.024;8.774;2023-04-01T19:59:49;93047.34;;;4.22;100.00
51829;BME280;37881;48.024;8.774;2023-04-01T20:02:42;93053.97;;;4.14;100.00
51829;BME280;37881;48.024;8.774;2023-04-01T20:16:21;93061.44;;;3.95;100.00
51829;BME280;37881;48.024;8.774;2023-04-01T20:18:54;93066.88;;;3.88;100.00
51829;BME280;37881;48.024;8.774;2023-04-01T20:21:42;93069.63;;;3.81;100.00
51829;BME280;37881;48.024;8.774;2023-04-01T20:24:15;93073.53;;;3.73;100.00
51829;BME280;37881;48.024;8.774;2023-04-01T20:26:49;93068.88;;;3.73;100.00
51829;BME280;37881;48.024;8.774;2023-04-01T20:29:37;93069.66;;;3.74;100.00
51829;BME280;37881;48.024;8.774;2023-04-01T20:40:47;93077.88;;;3.49;100.00
51829;BME280;37881;48.024;8.774;2023-04-01T20:43:42;93075.91;;;3.53;100.00
51829;BME280;37881;48.024;8.774;2023-04-01T21:06:36;93082.09;;;3.57;100.00
51829;BME280;37881;48.024;8.774;2023-04-01T21:09:23;93080.94;;;3.62;100.00
51829;BME280;37881;48.024;8.774;2023-04-01T21:25:27;93086.38;;;3.54;100.00
51829;BME280;37881;48.024;8.774;2023-04-01T21:28:07;93086.41;;;3.36;100.00
51829;BME280;37881;48.024;8.774;2023-04-01T22:04:53;93137.94;;;3.26;100.00
51829;BME280;37881;48.024;8.774;2023-04-01T22:07:41;93142.22;;;3.27;100.00
51829;BME280;37881;48.024;8.774;2023-04-01T22:19:09;93155.75;;;3.37;100.00
51829;BME280;37881;48.024;8.774;2023-04-01T22:24:54;93155.00;;;3.40;100.00
51829;BME280;37881;48.024;8.774;2023-04-01T22:27:41;93156.13;;;3.43;100.00
51829;BME280;37881;48.024;8.774;2023-04-01T22:32:50;93156.50;;;3.63;100.00
51829;BME280;37881;48.024;8.774;2023-04-01T22:35:38;93153.78;;;3.63;100.00
51829;BME280;37881;48.024;8.774;2023-04-01T22:41:05;93160.78;;;3.60;100.00
51829;BME280;37881;48.024;8.774;2023-04-01T22:43:41;93166.19;;;3.71;100.00
51829;BME280;37881;48.024;8.774;2023-04-01T22:51:42;93152.56;;;3.96;100.00
51829;BME280;37881;48.024;8.774;2023-04-01T22:56:56;93181.22;;;4.08;100.00
51829;BME280;37881;48.024;8.774;2023-04-01T22:59:51;93171.94;;;4.09;100.00
51829;BME280;37881;48.024;8.774;2023-04-01T23:02:27;93179.66;;;4.18;100.00
51829;BME280;37881;48.024;8.774;2023-04-01T23:05:00;93180.06;;;4.02;100.00
51829;BME280;37881;48.024;8.774;2023-04-01T23:07:53;93181.66;;;3.96;100.00
51829;BME280;37881;48.024;8.774;2023-04-01T23:13:10;93181.22;;;4.12;100.00
51829;BME280;37881;48.024;8.774;2023-04-01T23:15:41;93183.94;;;4.19;100.00
51829;BME280;37881;48.024;8.774;2023-04-01T23:18:27;93172.31;;;4.15;100.00
51829;BME280;37881;48.024;8.774;2023-04-01T23:21:26;93177.78;;;4.00;100.00
51829;BME280;37881;48.024;8.774;2023-04-01T23:24:02;93189.81;;;3.78;100.00